createdAt,value
2022-12-26T00:02:21.165Z,6.75
2022-12-26T00:07:27.905Z,6.69
2022-12-26T00:12:32.766Z,6.81
2022-12-26T00:17:40.587Z,6.80
2022-12-26T00:22:47.860Z,6.85
2022-12-26T00:27:55.158Z,6.73
2022-12-26T00:33:05.675Z,6.83
2022-12-26T00:43:41.749Z,6.80
2022-12-26T00:48:47.996Z,6.59
2022-12-26T00:53:58.222Z,6.55
2022-12-26T00:59:02.248Z,6.52
2022-12-26T01:04:11.354Z,6.46
2022-12-26T01:09:15.211Z,6.39
2022-12-26T01:14:19.479Z,6.30
2022-12-26T01:19:27.626Z,6.19
2022-12-26T01:24:34.635Z,6.09
2022-12-26T01:29:42.557Z,6.03
2022-12-26T01:34:46.846Z,6.09
2022-12-26T01:39:59.539Z,5.94
2022-12-26T01:45:05.659Z,5.76
2022-12-26T01:50:12.035Z,5.70
2022-12-26T01:55:21.070Z,5.61
2022-12-26T02:00:29.440Z,5.57
2022-12-26T02:05:35.811Z,5.47
2022-12-26T02:10:42.890Z,5.48
2022-12-26T02:15:50.779Z,5.46
2022-12-26T02:20:54.993Z,5.54
2022-12-26T02:26:00.863Z,5.53
2022-12-26T02:31:06.007Z,5.46
2022-12-26T02:36:10.734Z,5.46
2022-12-26T02:41:14.491Z,5.42
2022-12-26T02:46:35.937Z,5.32
2022-12-26T02:52:04.741Z,5.61
2022-12-26T02:57:33.710Z,5.76
2022-12-26T03:02:54.631Z,5.98
2022-12-26T03:08:15.585Z,6.00
2022-12-26T03:13:24.448Z,5.88
2022-12-26T03:18:57.911Z,5.89
2022-12-26T03:23:56.223Z,5.92
2022-12-26T03:29:19.054Z,5.90
2022-12-26T03:34:35.140Z,6.01
2022-12-26T03:39:57.075Z,6.02
2022-12-26T03:45:17.477Z,5.98
2022-12-26T03:50:38.946Z,6.13
2022-12-26T03:56:11.516Z,6.26
2022-12-26T04:01:43.462Z,6.28
2022-12-26T04:07:04.238Z,6.13
2022-12-26T04:12:27.558Z,6.10
2022-12-26T04:17:51.407Z,6.02
2022-12-26T04:23:26.764Z,6.01
2022-12-26T04:28:47.759Z,6.00
2022-12-26T04:34:08.323Z,5.87
2022-12-26T04:39:31.539Z,5.67
2022-12-26T04:44:37.234Z,5.50
2022-12-26T04:49:58.374Z,5.48
2022-12-26T04:55:01.992Z,5.48
2022-12-26T05:00:09.634Z,5.42
2022-12-26T05:05:31.915Z,5.42
2022-12-26T05:10:38.125Z,5.31
2022-12-26T05:15:54.785Z,5.31
2022-12-26T05:21:15.624Z,5.30
2022-12-26T05:26:43.025Z,5.26
2022-12-26T05:31:46.574Z,5.17
2022-12-26T05:36:52.531Z,5.18
2022-12-26T05:41:58.030Z,5.16
2022-12-26T05:47:04.593Z,5.14
2022-12-26T05:52:10.353Z,5.33
2022-12-26T05:57:16.309Z,5.52
2022-12-26T06:02:21.662Z,5.62
2022-12-26T06:07:26.607Z,5.68
2022-12-26T06:12:30.405Z,5.64
2022-12-26T06:17:35.384Z,5.72
2022-12-26T06:22:46.213Z,5.76
2022-12-26T06:27:50.343Z,5.85
2022-12-26T06:32:56.141Z,5.92
2022-12-26T06:37:59.272Z,6.02
2022-12-26T06:43:05.004Z,6.07
2022-12-26T06:48:08.364Z,6.42
2022-12-26T06:53:15.811Z,6.41
2022-12-26T06:58:24.292Z,6.38
2022-12-26T07:03:51.142Z,6.27
2022-12-26T07:09:10.467Z,6.23
2022-12-26T07:14:29.625Z,6.23
2022-12-26T07:19:35.746Z,6.32
2022-12-26T07:24:40.735Z,6.35
2022-12-26T07:29:49.304Z,6.46
2022-12-26T07:34:56.741Z,6.57
2022-12-26T07:40:02.594Z,6.70
2022-12-26T07:45:08.407Z,6.86
2022-12-26T07:50:16.663Z,6.88
2022-12-26T07:55:23.138Z,7.00
2022-12-26T08:00:26.702Z,7.14
2022-12-26T08:05:42.757Z,7.36
2022-12-26T08:10:49.807Z,7.47
2022-12-26T08:15:53.183Z,7.54
2022-12-26T08:20:56.871Z,7.47
2022-12-26T08:26:03.869Z,7.47
2022-12-26T08:31:11.599Z,7.41
2022-12-26T08:36:19.458Z,7.56
2022-12-26T08:41:23.865Z,7.70
2022-12-26T08:46:30.169Z,7.72
2022-12-26T08:51:34.707Z,7.85
2022-12-26T08:56:40.961Z,8.01
2022-12-26T09:01:45.883Z,8.12
2022-12-26T09:06:57.266Z,8.31
2022-12-26T09:12:06.096Z,8.42
2022-12-26T09:17:13.484Z,8.64
2022-12-26T09:22:35.407Z,8.99
2022-12-26T09:27:43.572Z,9.28
2022-12-26T09:32:50.687Z,9.52
2022-12-26T09:37:54.164Z,9.74
2022-12-26T09:42:59.349Z,9.92
2022-12-26T09:48:03.323Z,10.16
2022-12-26T09:53:10.428Z,10.29
2022-12-26T09:58:17.012Z,10.43
2022-12-26T10:03:21.506Z,10.65
2022-12-26T10:08:28.104Z,10.71
2022-12-26T10:13:32.981Z,10.80
2022-12-26T10:18:36.569Z,10.92
2022-12-26T10:23:41.714Z,11.01
2022-12-26T10:28:49.467Z,10.98
2022-12-26T10:33:54.964Z,11.11
2022-12-26T10:39:00.691Z,11.16
2022-12-26T10:44:06.918Z,11.53
2022-12-26T10:49:26.431Z,11.70
2022-12-26T10:54:38.518Z,11.90
2022-12-26T10:59:53.223Z,12.23
2022-12-26T11:05:15.547Z,12.57
2022-12-26T11:10:29.667Z,12.87
2022-12-26T11:15:49.228Z,13.01
2022-12-26T11:20:58.485Z,13.18
2022-12-26T11:26:02.464Z,13.48
2022-12-26T11:31:06.984Z,13.38
2022-12-26T11:36:13.227Z,13.21
2022-12-26T11:41:37.045Z,13.19
2022-12-26T11:46:44.358Z,13.20
2022-12-26T11:51:58.868Z,13.35
2022-12-26T12:02:24.839Z,13.12
2022-12-26T12:07:47.364Z,12.78
2022-12-26T12:12:52.349Z,12.72
2022-12-26T12:17:56.983Z,12.28
2022-12-26T12:23:04.378Z,11.89
2022-12-26T12:28:15.051Z,11.16
2022-12-26T12:33:19.492Z,10.33
2022-12-26T12:38:25.889Z,9.85
2022-12-26T12:43:41.736Z,9.57
2022-12-26T12:48:45.206Z,9.39
2022-12-26T12:53:54.761Z,9.28
2022-12-26T12:59:03.999Z,9.30
2022-12-26T13:04:10.423Z,9.29
2022-12-26T13:09:16.594Z,9.20
2022-12-26T13:14:23.257Z,9.09
2022-12-26T13:19:33.092Z,9.01
2022-12-26T13:24:40.752Z,8.87
2022-12-26T13:29:50.731Z,8.83
2022-12-26T13:34:55.168Z,8.70
2022-12-26T13:40:09.458Z,8.66
2022-12-26T13:45:21.678Z,8.63
2022-12-26T13:50:31.541Z,8.61
2022-12-26T13:55:36.501Z,8.61
2022-12-26T14:06:05.315Z,8.57
2022-12-26T14:11:14.500Z,8.50
2022-12-26T14:16:21.319Z,8.41
2022-12-26T14:21:30.796Z,8.37
2022-12-26T14:26:44.746Z,8.33
2022-12-26T14:31:56.970Z,8.25
2022-12-26T14:37:15.642Z,8.18
2022-12-26T14:42:46.804Z,8.13
2022-12-26T14:47:53.328Z,8.11
2022-12-26T14:53:01.047Z,8.05
2022-12-26T14:58:06.696Z,8.02
2022-12-26T15:03:10.967Z,7.97
2022-12-26T15:08:19.986Z,7.92
2022-12-26T15:13:28.428Z,7.91
2022-12-26T15:18:42.565Z,7.88
2022-12-26T15:23:53.367Z,7.84
2022-12-26T15:28:57.344Z,7.84
2022-12-26T15:34:05.019Z,7.82
2022-12-26T15:44:42.625Z,7.72
2022-12-26T15:49:50.306Z,7.70
2022-12-26T15:54:55.115Z,7.61
2022-12-26T16:00:02.743Z,7.61
2022-12-26T16:05:06.914Z,7.57
2022-12-26T16:10:14.221Z,7.51
2022-12-26T16:15:25.200Z,7.54
2022-12-26T16:20:44.963Z,7.46
2022-12-26T16:25:49.922Z,7.41
2022-12-26T16:30:57.957Z,7.35
2022-12-26T16:36:08.634Z,7.33
2022-12-26T16:41:14.380Z,7.31
2022-12-26T16:46:25.683Z,7.27
2022-12-26T16:51:33.386Z,7.23
2022-12-26T16:56:39.875Z,7.24
2022-12-26T17:01:49.249Z,7.28
2022-12-26T17:06:59.820Z,7.21
2022-12-26T17:12:13.049Z,7.35
2022-12-26T17:17:16.734Z,7.36
2022-12-26T17:22:23.496Z,7.43
2022-12-26T17:27:27.284Z,7.44
2022-12-26T17:32:32.154Z,7.53
2022-12-26T17:37:37.508Z,7.55
2022-12-26T17:42:41.816Z,7.55
2022-12-26T17:47:45.353Z,7.45
2022-12-26T17:52:49.359Z,7.35
2022-12-26T17:57:56.882Z,7.30
2022-12-26T18:03:00.928Z,7.31
2022-12-26T18:08:10.509Z,7.32
2022-12-26T18:13:19.427Z,7.38
2022-12-26T18:18:24.148Z,7.45
2022-12-26T18:23:34.333Z,7.47
2022-12-26T18:28:38.780Z,7.51
2022-12-26T18:33:47.355Z,7.51
2022-12-26T18:38:53.054Z,7.53
2022-12-26T18:43:58.229Z,7.56
2022-12-26T18:49:07.246Z,7.55
2022-12-26T18:54:13.984Z,7.54
2022-12-26T18:59:20.487Z,7.58
2022-12-26T19:04:27.799Z,7.62
2022-12-26T19:09:39.434Z,7.58
2022-12-26T19:14:43.945Z,7.61
2022-12-26T19:19:50.475Z,7.63
2022-12-26T19:24:55.782Z,7.65
2022-12-26T19:30:06.655Z,7.64
2022-12-26T19:35:17.931Z,7.63
2022-12-26T19:40:25.248Z,7.60
2022-12-26T19:45:31.861Z,7.48
2022-12-26T19:50:43.316Z,7.34
2022-12-26T19:55:48.473Z,7.28
2022-12-26T20:00:53.665Z,7.35
2022-12-26T20:06:01.174Z,7.26
2022-12-26T20:11:05.114Z,7.15
2022-12-26T20:16:18.758Z,7.15
2022-12-26T20:21:32.750Z,7.12
2022-12-26T20:26:40.157Z,7.13
2022-12-26T20:31:44.577Z,7.16
2022-12-26T20:36:49.848Z,7.17
2022-12-26T20:41:54.500Z,7.28
2022-12-26T20:47:10.010Z,7.38
2022-12-26T20:52:16.226Z,7.42
2022-12-26T20:57:20.685Z,7.40
2022-12-26T21:02:25.787Z,7.54
2022-12-26T21:07:30.031Z,7.53
2022-12-26T21:12:40.641Z,7.34
2022-12-26T21:17:44.402Z,5.61
2022-12-26T21:22:51.175Z,5.23
2022-12-26T21:27:59.359Z,5.19
2022-12-26T21:33:09.571Z,5.22
2022-12-26T21:38:12.895Z,5.15
2022-12-26T21:43:16.135Z,5.28
2022-12-26T21:48:20.301Z,5.24
2022-12-26T21:53:27.113Z,5.33
2022-12-26T21:58:30.582Z,5.36
2022-12-26T22:03:52.308Z,5.42
2022-12-26T22:09:01.099Z,5.51
2022-12-26T22:14:05.139Z,5.58
2022-12-26T22:19:13.713Z,5.70
2022-12-26T22:24:17.484Z,5.76
2022-12-26T22:29:22.163Z,5.76
2022-12-26T22:34:28.575Z,5.77
2022-12-26T22:39:32.025Z,5.87
2022-12-26T22:44:36.653Z,5.96
2022-12-26T22:49:41.042Z,6.02
2022-12-26T22:54:46.631Z,5.97
2022-12-26T23:00:08.188Z,6.00
2022-12-26T23:05:22.985Z,5.96
2022-12-26T23:10:29.354Z,6.00
2022-12-26T23:15:39.811Z,6.05
2022-12-26T23:21:00.377Z,6.05
2022-12-26T23:26:06.543Z,6.09
2022-12-26T23:31:10.498Z,6.09
2022-12-26T23:36:14.490Z,6.02
2022-12-26T23:41:18.255Z,6.06
2022-12-26T23:46:29.102Z,6.04
2022-12-26T23:51:34.549Z,6.02
2022-12-26T23:56:37.785Z,6.02
